sensor_id;sensor_type;location;lat;lon;timestamp;P1;durP1;ratioP1;P2;durP2;ratioP2
11173;SDS011;5643;50.856;12.088;2022-08-02T00:02:23;1.07;;;1.07;;
11173;SDS011;5643;50.856;12.088;2022-08-02T00:04:51;1.33;;;1.33;;
11173;SDS011;5643;50.856;12.088;2022-08-02T00:07:19;1.40;;;1.40;;
11173;SDS011;5643;50.856;12.088;2022-08-02T00:09:47;1.47;;;1.43;;
11173;SDS011;5643;50.856;12.088;2022-08-02T00:12:15;1.20;;;1.20;;
11173;SDS011;5643;50.856;12.088;2022-08-02T00:14:43;1.60;;;1.27;;
11173;SDS011;5643;50.856;12.088;2022-08-02T00:17:10;1.00;;;1.00;;
11173;SDS011;5643;50.856;12.088;2022-08-02T00:19:38;1.17;;;1.17;;
11173;SDS011;5643;50.856;12.088;2022-08-02T00:22:05;1.13;;;1.13;;
11173;SDS011;5643;50.856;12.088;2022-08-02T00:24:33;1.73;;;1.50;;
11173;SDS011;5643;50.856;12.088;2022-08-02T00:27:02;1.00;;;1.00;;
11173;SDS011;5643;50.856;12.088;2022-08-02T00:29:32;1.33;;;1.33;;
11173;SDS011;5643;50.856;12.088;2022-08-02T00:32:00;1.30;;;1.17;;
11173;SDS011;5643;50.856;12.088;2022-08-02T00:34:28;1.00;;;1.00;;
11173;SDS011;5643;50.856;12.088;2022-08-02T00:36:55;1.30;;;1.20;;
11173;SDS011;5643;50.856;12.088;2022-08-02T00:39:22;1.20;;;1.20;;
11173;SDS011;5643;50.856;12.088;2022-08-02T00:41:51;1.60;;;1.50;;
11173;SDS011;5643;50.856;12.088;2022-08-02T00:44:20;2.20;;;1.53;;
11173;SDS011;5643;50.856;12.088;2022-08-02T00:46:48;1.40;;;1.40;;
11173;SDS011;5643;50.856;12.088;2022-08-02T00:49:15;1.20;;;1.20;;
11173;SDS011;5643;50.856;12.088;2022-08-02T00:51:43;1.47;;;1.37;;
11173;SDS011;5643;50.856;12.088;2022-08-02T00:54:11;1.67;;;1.53;;
11173;SDS011;5643;50.856;12.088;2022-08-02T00:56:39;1.03;;;1.03;;
11173;SDS011;5643;50.856;12.088;2022-08-02T00:59:06;1.00;;;1.00;;
11173;SDS011;5643;50.856;12.088;2022-08-02T01:01:36;1.30;;;1.30;;
11173;SDS011;5643;50.856;12.088;2022-08-02T01:04:07;1.03;;;1.03;;
11173;SDS011;5643;50.856;12.088;2022-08-02T01:06:38;1.23;;;1.23;;
11173;SDS011;5643;50.856;12.088;2022-08-02T01:09:07;2.50;;;1.40;;
11173;SDS011;5643;50.856;12.088;2022-08-02T01:11:35;1.07;;;1.07;;
11173;SDS011;5643;50.856;12.088;2022-08-02T01:14:04;1.53;;;1.47;;
11173;SDS011;5643;50.856;12.088;2022-08-02T01:16:37;1.50;;;1.40;;
11173;SDS011;5643;50.856;12.088;2022-08-02T01:19:12;1.80;;;1.70;;
11173;SDS011;5643;50.856;12.088;2022-08-02T01:21:58;1.63;;;1.50;;
11173;SDS011;5643;50.856;12.088;2022-08-02T01:24:51;1.23;;;1.20;;
11173;SDS011;5643;50.856;12.088;2022-08-02T01:27:32;1.60;;;1.50;;
11173;SDS011;5643;50.856;12.088;2022-08-02T01:30:10;1.40;;;1.30;;
11173;SDS011;5643;50.856;12.088;2022-08-02T01:32:40;1.30;;;1.30;;
11173;SDS011;5643;50.856;12.088;2022-08-02T01:35:13;1.10;;;1.10;;
11173;SDS011;5643;50.856;12.088;2022-08-02T01:37:45;1.40;;;1.30;;
11173;SDS011;5643;50.856;12.088;2022-08-02T01:40:19;1.43;;;1.33;;
11173;SDS011;5643;50.856;12.088;2022-08-02T01:42:50;1.27;;;1.17;;
11173;SDS011;5643;50.856;12.088;2022-08-02T01:45:24;1.43;;;1.33;;
11173;SDS011;5643;50.856;12.088;2022-08-02T01:47:56;1.33;;;1.33;;
11173;SDS011;5643;50.856;12.088;2022-08-02T01:50:26;1.47;;;1.40;;
11173;SDS011;5643;50.856;12.088;2022-08-02T01:52:58;1.27;;;1.27;;
11173;SDS011;5643;50.856;12.088;2022-08-02T01:55:32;1.77;;;1.67;;
11173;SDS011;5643;50.856;12.088;2022-08-02T01:58:03;1.50;;;1.40;;
11173;SDS011;5643;50.856;12.088;2022-08-02T02:00:35;1.40;;;1.37;;
11173;SDS011;5643;50.856;12.088;2022-08-02T02:03:06;1.67;;;1.57;;
11173;SDS011;5643;50.856;12.088;2022-08-02T02:05:39;1.80;;;1.63;;
11173;SDS011;5643;50.856;12.088;2022-08-02T02:08:08;1.57;;;1.47;;
11173;SDS011;5643;50.856;12.088;2022-08-02T02:10:37;1.70;;;1.60;;
11173;SDS011;5643;50.856;12.088;2022-08-02T02:13:07;1.60;;;1.50;;
11173;SDS011;5643;50.856;12.088;2022-08-02T02:15:42;1.50;;;1.40;;
11173;SDS011;5643;50.856;12.088;2022-08-02T02:18:13;1.23;;;1.23;;
11173;SDS011;5643;50.856;12.088;2022-08-02T02:20:44;1.40;;;1.40;;
11173;SDS011;5643;50.856;12.088;2022-08-02T02:23:13;1.87;;;1.77;;
11173;SDS011;5643;50.856;12.088;2022-08-02T02:25:42;1.53;;;1.43;;
11173;SDS011;5643;50.856;12.088;2022-08-02T02:28:10;1.50;;;1.47;;
11173;SDS011;5643;50.856;12.088;2022-08-02T02:30:41;1.67;;;1.50;;
11173;SDS011;5643;50.856;12.088;2022-08-02T02:33:16;2.00;;;1.60;;
11173;SDS011;5643;50.856;12.088;2022-08-02T02:35:45;1.70;;;1.60;;
11173;SDS011;5643;50.856;12.088;2022-08-02T02:38:15;1.50;;;1.50;;
11173;SDS011;5643;50.856;12.088;2022-08-02T02:40:47;1.60;;;1.50;;
11173;SDS011;5643;50.856;12.088;2022-08-02T02:43:15;1.97;;;1.70;;
11173;SDS011;5643;50.856;12.088;2022-08-02T02:45:45;1.70;;;1.60;;
11173;SDS011;5643;50.856;12.088;2022-08-02T02:48:14;1.37;;;1.37;;
11173;SDS011;5643;50.856;12.088;2022-08-02T02:50:43;1.17;;;1.17;;
11173;SDS011;5643;50.856;12.088;2022-08-02T02:53:12;1.40;;;1.30;;
11173;SDS011;5643;50.856;12.088;2022-08-02T02:55:43;1.30;;;1.30;;
11173;SDS011;5643;50.856;12.088;2022-08-02T02:58:11;1.50;;;1.40;;
11173;SDS011;5643;50.856;12.088;2022-08-02T03:00:39;1.20;;;1.20;;
11173;SDS011;5643;50.856;12.088;2022-08-02T03:03:26;1.37;;;1.30;;
11173;SDS011;5643;50.856;12.088;2022-08-02T03:05:54;1.10;;;1.10;;
11173;SDS011;5643;50.856;12.088;2022-08-02T03:08:22;1.30;;;1.30;;
11173;SDS011;5643;50.856;12.088;2022-08-02T03:10:49;1.33;;;1.33;;
11173;SDS011;5643;50.856;12.088;2022-08-02T03:13:17;1.50;;;1.40;;
11173;SDS011;5643;50.856;12.088;2022-08-02T03:15:46;1.40;;;1.30;;
11173;SDS011;5643;50.856;12.088;2022-08-02T03:18:32;1.33;;;1.23;;
11173;SDS011;5643;50.856;12.088;2022-08-02T03:21:00;1.50;;;1.20;;
11173;SDS011;5643;50.856;12.088;2022-08-02T03:23:29;1.40;;;1.40;;
11173;SDS011;5643;50.856;12.088;2022-08-02T03:25:58;1.50;;;1.40;;
11173;SDS011;5643;50.856;12.088;2022-08-02T03:28:25;1.20;;;1.20;;
11173;SDS011;5643;50.856;12.088;2022-08-02T03:30:53;1.17;;;1.17;;
11173;SDS011;5643;50.856;12.088;2022-08-02T03:33:21;1.40;;;1.40;;
11173;SDS011;5643;50.856;12.088;2022-08-02T03:35:52;1.37;;;1.27;;
11173;SDS011;5643;50.856;12.088;2022-08-02T03:38:21;1.33;;;1.27;;
11173;SDS011;5643;50.856;12.088;2022-08-02T03:40:51;1.40;;;1.30;;
11173;SDS011;5643;50.856;12.088;2022-08-02T03:43:20;1.20;;;1.10;;
11173;SDS011;5643;50.856;12.088;2022-08-02T03:45:49;1.20;;;1.13;;
11173;SDS011;5643;50.856;12.088;2022-08-02T03:48:18;1.40;;;1.30;;
11173;SDS011;5643;50.856;12.088;2022-08-02T03:50:47;1.50;;;1.40;;
11173;SDS011;5643;50.856;12.088;2022-08-02T03:53:17;1.40;;;1.30;;
11173;SDS011;5643;50.856;12.088;2022-08-02T03:55:46;1.10;;;1.10;;
11173;SDS011;5643;50.856;12.088;2022-08-02T03:58:16;1.53;;;1.20;;
11173;SDS011;5643;50.856;12.088;2022-08-02T04:00:45;1.17;;;1.17;;
11173;SDS011;5643;50.856;12.088;2022-08-02T04:03:13;1.43;;;1.33;;
11173;SDS011;5643;50.856;12.088;2022-08-02T04:05:41;1.53;;;1.43;;
11173;SDS011;5643;50.856;12.088;2022-08-02T04:08:09;1.10;;;1.10;;
11173;SDS011;5643;50.856;12.088;2022-08-02T04:10:39;1.47;;;1.37;;
11173;SDS011;5643;50.856;12.088;2022-08-02T04:13:25;1.40;;;1.40;;
11173;SDS011;5643;50.856;12.088;2022-08-02T04:15:54;1.30;;;1.30;;
11173;SDS011;5643;50.856;12.088;2022-08-02T04:18:26;1.50;;;1.40;;
11173;SDS011;5643;50.856;12.088;2022-08-02T04:21:01;1.70;;;1.60;;
11173;SDS011;5643;50.856;12.088;2022-08-02T04:23:32;1.43;;;1.30;;
11173;SDS011;5643;50.856;12.088;2022-08-02T04:26:06;1.53;;;1.43;;
11173;SDS011;5643;50.856;12.088;2022-08-02T04:28:35;2.10;;;1.60;;
11173;SDS011;5643;50.856;12.088;2022-08-02T04:31:03;1.40;;;1.30;;
11173;SDS011;5643;50.856;12.088;2022-08-02T04:33:33;1.40;;;1.37;;
11173;SDS011;5643;50.856;12.088;2022-08-02T04:36:01;1.60;;;1.50;;
11173;SDS011;5643;50.856;12.088;2022-08-02T04:38:28;1.50;;;1.40;;
11173;SDS011;5643;50.856;12.088;2022-08-02T04:40:56;1.67;;;1.57;;
11173;SDS011;5643;50.856;12.088;2022-08-02T04:43:26;1.50;;;1.40;;
11173;SDS011;5643;50.856;12.088;2022-08-02T04:45:53;1.70;;;1.60;;
11173;SDS011;5643;50.856;12.088;2022-08-02T04:48:21;1.33;;;1.23;;
11173;SDS011;5643;50.856;12.088;2022-08-02T04:50:49;1.53;;;1.43;;
11173;SDS011;5643;50.856;12.088;2022-08-02T04:53:17;1.73;;;1.63;;
11173;SDS011;5643;50.856;12.088;2022-08-02T04:55:45;1.60;;;1.50;;
11173;SDS011;5643;50.856;12.088;2022-08-02T04:58:12;1.50;;;1.40;;
11173;SDS011;5643;50.856;12.088;2022-08-02T05:00:42;1.40;;;1.30;;
11173;SDS011;5643;50.856;12.088;2022-08-02T05:03:10;1.67;;;1.57;;
11173;SDS011;5643;50.856;12.088;2022-08-02T05:05:39;1.90;;;1.80;;
11173;SDS011;5643;50.856;12.088;2022-08-02T05:08:06;1.90;;;1.80;;
11173;SDS011;5643;50.856;12.088;2022-08-02T05:10:34;2.30;;;2.10;;
11173;SDS011;5643;50.856;12.088;2022-08-02T05:13:03;1.83;;;1.60;;
11173;SDS011;5643;50.856;12.088;2022-08-02T05:15:32;2.20;;;2.00;;
11173;SDS011;5643;50.856;12.088;2022-08-02T05:18:01;2.00;;;1.90;;
11173;SDS011;5643;50.856;12.088;2022-08-02T05:20:28;2.30;;;2.10;;
11173;SDS011;5643;50.856;12.088;2022-08-02T05:22:57;2.30;;;2.10;;
11173;SDS011;5643;50.856;12.088;2022-08-02T05:25:24;2.63;;;2.43;;
11173;SDS011;5643;50.856;12.088;2022-08-02T05:27:52;3.40;;;3.10;;
11173;SDS011;5643;50.856;12.088;2022-08-02T05:30:20;3.57;;;3.27;;
11173;SDS011;5643;50.856;12.088;2022-08-02T05:32:48;3.37;;;3.07;;
11173;SDS011;5643;50.856;12.088;2022-08-02T05:35:19;2.70;;;2.50;;
11173;SDS011;5643;50.856;12.088;2022-08-02T05:37:48;3.07;;;2.80;;
11173;SDS011;5643;50.856;12.088;2022-08-02T05:40:16;2.90;;;2.70;;
11173;SDS011;5643;50.856;12.088;2022-08-02T05:42:44;2.60;;;2.40;;
11173;SDS011;5643;50.856;12.088;2022-08-02T05:45:12;2.90;;;2.70;;
11173;SDS011;5643;50.856;12.088;2022-08-02T05:47:39;2.67;;;2.47;;
11173;SDS011;5643;50.856;12.088;2022-08-02T05:50:08;2.57;;;2.37;;
11173;SDS011;5643;50.856;12.088;2022-08-02T05:52:42;2.90;;;2.70;;
11173;SDS011;5643;50.856;12.088;2022-08-02T05:55:12;2.87;;;2.67;;
11173;SDS011;5643;50.856;12.088;2022-08-02T05:57:47;2.63;;;2.53;;
11173;SDS011;5643;50.856;12.088;2022-08-02T06:00:19;3.03;;;2.83;;
11173;SDS011;5643;50.856;12.088;2022-08-02T06:02:58;2.70;;;2.50;;
11173;SDS011;5643;50.856;12.088;2022-08-02T06:05:31;3.03;;;2.83;;
11173;SDS011;5643;50.856;12.088;2022-08-02T06:08:02;3.53;;;3.23;;
11173;SDS011;5643;50.856;12.088;2022-08-02T06:10:34;2.40;;;2.20;;
11173;SDS011;5643;50.856;12.088;2022-08-02T06:13:06;2.20;;;2.10;;
11173;SDS011;5643;50.856;12.088;2022-08-02T06:15:35;1.90;;;1.80;;
11173;SDS011;5643;50.856;12.088;2022-08-02T06:18:04;2.60;;;2.40;;
11173;SDS011;5643;50.856;12.088;2022-08-02T06:20:33;2.90;;;2.70;;
11173;SDS011;5643;50.856;12.088;2022-08-02T06:23:04;2.60;;;2.40;;
11173;SDS011;5643;50.856;12.088;2022-08-02T06:25:33;2.40;;;2.20;;
11173;SDS011;5643;50.856;12.088;2022-08-02T06:28:02;1.87;;;1.77;;
11173;SDS011;5643;50.856;12.088;2022-08-02T06:30:31;2.50;;;2.30;;
11173;SDS011;5643;50.856;12.088;2022-08-02T06:32:59;1.70;;;1.60;;
11173;SDS011;5643;50.856;12.088;2022-08-02T06:35:29;2.00;;;1.90;;
11173;SDS011;5643;50.856;12.088;2022-08-02T06:38:11;1.80;;;1.63;;
11173;SDS011;5643;50.856;12.088;2022-08-02T06:40:49;2.60;;;2.00;;
11173;SDS011;5643;50.856;12.088;2022-08-02T06:43:22;2.90;;;1.77;;
11173;SDS011;5643;50.856;12.088;2022-08-02T06:45:57;1.97;;;1.70;;
11173;SDS011;5643;50.856;12.088;2022-08-02T06:48:25;1.70;;;1.50;;
11173;SDS011;5643;50.856;12.088;2022-08-02T06:50:52;1.23;;;1.00;;
11173;SDS011;5643;50.856;12.088;2022-08-02T06:53:21;1.13;;;1.13;;
11173;SDS011;5643;50.856;12.088;2022-08-02T06:55:49;1.60;;;1.50;;
11173;SDS011;5643;50.856;12.088;2022-08-02T06:58:16;1.87;;;1.40;;
11173;SDS011;5643;50.856;12.088;2022-08-02T07:00:44;1.37;;;1.27;;
11173;SDS011;5643;50.856;12.088;2022-08-02T07:03:11;3.13;;;1.90;;
11173;SDS011;5643;50.856;12.088;2022-08-02T07:05:40;1.97;;;1.50;;
11173;SDS011;5643;50.856;12.088;2022-08-02T07:08:11;1.47;;;1.37;;
11173;SDS011;5643;50.856;12.088;2022-08-02T07:10:39;1.93;;;1.70;;
11173;SDS011;5643;50.856;12.088;2022-08-02T07:13:07;1.67;;;1.40;;
11173;SDS011;5643;50.856;12.088;2022-08-02T07:15:35;1.53;;;1.40;;
11173;SDS011;5643;50.856;12.088;2022-08-02T07:18:03;2.03;;;1.60;;
11173;SDS011;5643;50.856;12.088;2022-08-02T07:20:31;2.10;;;1.70;;
11173;SDS011;5643;50.856;12.088;2022-08-02T07:22:58;2.40;;;1.75;;
11173;SDS011;5643;50.856;12.088;2022-08-02T07:25:26;1.77;;;1.42;;
11173;SDS011;5643;50.856;12.088;2022-08-02T07:27:55;2.20;;;1.50;;
11173;SDS011;5643;50.856;12.088;2022-08-02T07:30:22;3.15;;;1.77;;
11173;SDS011;5643;50.856;12.088;2022-08-02T07:32:50;2.03;;;1.60;;
11173;SDS011;5643;50.856;12.088;2022-08-02T07:35:19;1.90;;;1.63;;
11173;SDS011;5643;50.856;12.088;2022-08-02T07:37:46;1.53;;;1.40;;
11173;SDS011;5643;50.856;12.088;2022-08-02T07:40:15;1.60;;;1.50;;
11173;SDS011;5643;50.856;12.088;2022-08-02T07:42:44;2.13;;;1.20;;
11173;SDS011;5643;50.856;12.088;2022-08-02T07:45:13;2.55;;;1.25;;
11173;SDS011;5643;50.856;12.088;2022-08-02T07:47:41;2.30;;;1.40;;
11173;SDS011;5643;50.856;12.088;2022-08-02T07:50:10;2.25;;;1.50;;
11173;SDS011;5643;50.856;12.088;2022-08-02T07:52:38;2.53;;;1.75;;
11173;SDS011;5643;50.856;12.088;2022-08-02T07:55:08;1.70;;;1.60;;
11173;SDS011;5643;50.856;12.088;2022-08-02T07:57:36;3.13;;;1.70;;
11173;SDS011;5643;50.856;12.088;2022-08-02T08:00:04;2.33;;;1.77;;
11173;SDS011;5643;50.856;12.088;2022-08-02T08:02:35;2.40;;;1.40;;
11173;SDS011;5643;50.856;12.088;2022-08-02T08:05:04;1.52;;;1.30;;
11173;SDS011;5643;50.856;12.088;2022-08-02T08:07:32;1.85;;;1.40;;
11173;SDS011;5643;50.856;12.088;2022-08-02T08:10:00;1.10;;;1.00;;
11173;SDS011;5643;50.856;12.088;2022-08-02T08:12:29;2.30;;;1.13;;
11173;SDS011;5643;50.856;12.088;2022-08-02T08:14:57;1.63;;;1.50;;
11173;SDS011;5643;50.856;12.088;2022-08-02T08:17:25;1.10;;;1.10;;
11173;SDS011;5643;50.856;12.088;2022-08-02T08:19:54;1.52;;;1.42;;
11173;SDS011;5643;50.856;12.088;2022-08-02T08:22:23;1.63;;;1.30;;
11173;SDS011;5643;50.856;12.088;2022-08-02T08:24:51;2.35;;;1.70;;
11173;SDS011;5643;50.856;12.088;2022-08-02T08:27:18;3.22;;;1.80;;
11173;SDS011;5643;50.856;12.088;2022-08-02T08:29:48;2.70;;;1.58;;
11173;SDS011;5643;50.856;12.088;2022-08-02T08:32:15;2.63;;;1.83;;
11173;SDS011;5643;50.856;12.088;2022-08-02T08:34:43;3.05;;;1.73;;
11173;SDS011;5643;50.856;12.088;2022-08-02T08:37:13;2.22;;;2.00;;
11173;SDS011;5643;50.856;12.088;2022-08-02T08:39:40;1.48;;;1.27;;
11173;SDS011;5643;50.856;12.088;2022-08-02T08:42:08;1.55;;;1.45;;
11173;SDS011;5643;50.856;12.088;2022-08-02T08:44:36;2.58;;;1.70;;
11173;SDS011;5643;50.856;12.088;2022-08-02T08:47:04;1.50;;;1.40;;
11173;SDS011;5643;50.856;12.088;2022-08-02T08:49:32;1.10;;;1.00;;
11173;SDS011;5643;50.856;12.088;2022-08-02T08:52:06;1.40;;;1.20;;
11173;SDS011;5643;50.856;12.088;2022-08-02T08:54:38;1.40;;;1.30;;
11173;SDS011;5643;50.856;12.088;2022-08-02T08:57:10;2.08;;;1.27;;
11173;SDS011;5643;50.856;12.088;2022-08-02T08:59:38;3.72;;;1.70;;
11173;SDS011;5643;50.856;12.088;2022-08-02T09:02:06;1.50;;;1.30;;
11173;SDS011;5643;50.856;12.088;2022-08-02T09:04:34;1.67;;;1.50;;
11173;SDS011;5643;50.856;12.088;2022-08-02T09:07:02;2.08;;;1.58;;
11173;SDS011;5643;50.856;12.088;2022-08-02T09:09:30;1.58;;;1.30;;
11173;SDS011;5643;50.856;12.088;2022-08-02T09:12:13;1.33;;;1.20;;
11173;SDS011;5643;50.856;12.088;2022-08-02T09:14:41;1.98;;;1.65;;
11173;SDS011;5643;50.856;12.088;2022-08-02T09:17:09;1.80;;;1.40;;
11173;SDS011;5643;50.856;12.088;2022-08-02T09:19:39;1.58;;;1.48;;
11173;SDS011;5643;50.856;12.088;2022-08-02T09:22:10;1.50;;;1.38;;
11173;SDS011;5643;50.856;12.088;2022-08-02T09:24:42;1.63;;;1.40;;
11173;SDS011;5643;50.856;12.088;2022-08-02T09:27:14;1.50;;;1.40;;
11173;SDS011;5643;50.856;12.088;2022-08-02T09:29:47;1.20;;;1.10;;
11173;SDS011;5643;50.856;12.088;2022-08-02T09:32:17;0.90;;;0.90;;
11173;SDS011;5643;50.856;12.088;2022-08-02T09:34:46;0.80;;;0.80;;
11173;SDS011;5643;50.856;12.088;2022-08-02T09:37:22;1.52;;;0.85;;
11173;SDS011;5643;50.856;12.088;2022-08-02T09:39:50;0.75;;;0.75;;
11173;SDS011;5643;50.856;12.088;2022-08-02T09:42:20;1.75;;;1.30;;
11173;SDS011;5643;50.856;12.088;2022-08-02T09:44:51;1.13;;;1.02;;
11173;SDS011;5643;50.856;12.088;2022-08-02T09:47:20;1.60;;;1.50;;
11173;SDS011;5643;50.856;12.088;2022-08-02T09:49:49;1.52;;;1.35;;
11173;SDS011;5643;50.856;12.088;2022-08-02T09:52:21;2.05;;;1.40;;
11173;SDS011;5643;50.856;12.088;2022-08-02T09:54:52;1.40;;;1.00;;
11173;SDS011;5643;50.856;12.088;2022-08-02T09:57:27;0.80;;;0.80;;
11173;SDS011;5643;50.856;12.088;2022-08-02T09:59:58;0.70;;;0.70;;
11173;SDS011;5643;50.856;12.088;2022-08-02T10:02:26;2.10;;;1.00;;
11173;SDS011;5643;50.856;12.088;2022-08-02T10:04:54;1.30;;;1.20;;
11173;SDS011;5643;50.856;12.088;2022-08-02T10:07:25;1.02;;;0.90;;
11173;SDS011;5643;50.856;12.088;2022-08-02T10:09:52;1.85;;;1.38;;
11173;SDS011;5643;50.856;12.088;2022-08-02T10:12:22;1.73;;;1.40;;
11173;SDS011;5643;50.856;12.088;2022-08-02T10:14:51;1.25;;;1.10;;
11173;SDS011;5643;50.856;12.088;2022-08-02T10:17:19;1.23;;;1.13;;
11173;SDS011;5643;50.856;12.088;2022-08-02T10:19:47;1.20;;;1.10;;
11173;SDS011;5643;50.856;12.088;2022-08-02T10:22:17;0.70;;;0.70;;
11173;SDS011;5643;50.856;12.088;2022-08-02T10:24:46;0.80;;;0.80;;
11173;SDS011;5643;50.856;12.088;2022-08-02T10:27:16;1.38;;;0.90;;
11173;SDS011;5643;50.856;12.088;2022-08-02T10:29:46;1.00;;;1.00;;
11173;SDS011;5643;50.856;12.088;2022-08-02T10:32:22;1.02;;;0.93;;
11173;SDS011;5643;50.856;12.088;2022-08-02T10:34:57;0.95;;;0.90;;
11173;SDS011;5643;50.856;12.088;2022-08-02T10:37:28;1.23;;;1.13;;
11173;SDS011;5643;50.856;12.088;2022-08-02T10:39:59;0.98;;;0.90;;
11173;SDS011;5643;50.856;12.088;2022-08-02T10:45:18;1.27;;;1.10;;
11173;SDS011;5643;50.856;12.088;2022-08-02T10:48:00;1.88;;;1.00;;
11173;SDS011;5643;50.856;12.088;2022-08-02T10:53:21;1.13;;;1.10;;
11173;SDS011;5643;50.856;12.088;2022-08-02T10:55:50;0.90;;;0.90;;
11173;SDS011;5643;50.856;12.088;2022-08-02T10:58:18;1.33;;;1.15;;
11173;SDS011;5643;50.856;12.088;2022-08-02T11:00:47;0.93;;;0.93;;
11173;SDS011;5643;50.856;12.088;2022-08-02T11:06:06;0.90;;;0.90;;
11173;SDS011;5643;50.856;12.088;2022-08-02T11:08:36;0.90;;;0.90;;
11173;SDS011;5643;50.856;12.088;2022-08-02T11:11:15;0.90;;;0.90;;
11173;SDS011;5643;50.856;12.088;2022-08-02T11:14:00;0.85;;;0.85;;
11173;SDS011;5643;50.856;12.088;2022-08-02T11:19:43;1.02;;;0.90;;
11173;SDS011;5643;50.856;12.088;2022-08-02T11:22:43;0.93;;;0.93;;
11173;SDS011;5643;50.856;12.088;2022-08-02T11:25:30;0.93;;;0.93;;
11173;SDS011;5643;50.856;12.088;2022-08-02T11:28:06;1.05;;;1.05;;
11173;SDS011;5643;50.856;12.088;2022-08-02T11:30:35;0.90;;;0.85;;
11173;SDS011;5643;50.856;12.088;2022-08-02T11:33:04;0.70;;;0.70;;
11173;SDS011;5643;50.856;12.088;2022-08-02T11:35:35;0.80;;;0.70;;
11173;SDS011;5643;50.856;12.088;2022-08-02T11:38:15;0.80;;;0.80;;
11173;SDS011;5643;50.856;12.088;2022-08-02T11:40:44;1.05;;;0.98;;
11173;SDS011;5643;50.856;12.088;2022-08-02T11:43:15;1.13;;;1.02;;
11173;SDS011;5643;50.856;12.088;2022-08-02T11:45:45;0.73;;;0.73;;
11173;SDS011;5643;50.856;12.088;2022-08-02T11:48:13;0.70;;;0.70;;
11173;SDS011;5643;50.856;12.088;2022-08-02T11:50:42;0.52;;;0.50;;
11173;SDS011;5643;50.856;12.088;2022-08-02T11:53:13;0.80;;;0.80;;
11173;SDS011;5643;50.856;12.088;2022-08-02T11:55:41;0.85;;;0.80;;
11173;SDS011;5643;50.856;12.088;2022-08-02T11:58:09;1.20;;;1.20;;
11173;SDS011;5643;50.856;12.088;2022-08-02T12:00:37;1.02;;;0.93;;
11173;SDS011;5643;50.856;12.088;2022-08-02T12:03:06;1.55;;;0.90;;
11173;SDS011;5643;50.856;12.088;2022-08-02T12:05:33;0.82;;;0.82;;
11173;SDS011;5643;50.856;12.088;2022-08-02T12:08:06;1.08;;;1.08;;
11173;SDS011;5643;50.856;12.088;2022-08-02T12:10:34;1.00;;;0.90;;
11173;SDS011;5643;50.856;12.088;2022-08-02T12:13:01;1.20;;;0.60;;
11173;SDS011;5643;50.856;12.088;2022-08-02T12:15:30;0.80;;;0.80;;
11173;SDS011;5643;50.856;12.088;2022-08-02T12:17:59;0.90;;;0.90;;
11173;SDS011;5643;50.856;12.088;2022-08-02T12:20:45;0.70;;;0.70;;
11173;SDS011;5643;50.856;12.088;2022-08-02T12:23:14;1.00;;;0.90;;
11173;SDS011;5643;50.856;12.088;2022-08-02T12:25:43;1.30;;;0.77;;
11173;SDS011;5643;50.856;12.088;2022-08-02T12:28:14;1.20;;;0.90;;
11173;SDS011;5643;50.856;12.088;2022-08-02T12:30:50;1.05;;;0.85;;
11173;SDS011;5643;50.856;12.088;2022-08-02T12:33:19;1.00;;;0.90;;
11173;SDS011;5643;50.856;12.088;2022-08-02T12:35:47;0.80;;;0.80;;
11173;SDS011;5643;50.856;12.088;2022-08-02T12:38:16;2.78;;;1.08;;
11173;SDS011;5643;50.856;12.088;2022-08-02T12:40:44;1.23;;;1.10;;
11173;SDS011;5643;50.856;12.088;2022-08-02T12:43:16;0.88;;;0.88;;
11173;SDS011;5643;50.856;12.088;2022-08-02T12:45:46;0.90;;;0.90;;
11173;SDS011;5643;50.856;12.088;2022-08-02T12:48:16;1.13;;;0.70;;
11173;SDS011;5643;50.856;12.088;2022-08-02T12:50:56;1.38;;;0.98;;
11173;SDS011;5643;50.856;12.088;2022-08-02T12:53:31;0.98;;;0.93;;
11173;SDS011;5643;50.856;12.088;2022-08-02T12:55:59;1.00;;;0.90;;
11173;SDS011;5643;50.856;12.088;2022-08-02T12:58:28;0.90;;;0.90;;
11173;SDS011;5643;50.856;12.088;2022-08-02T13:00:58;1.00;;;1.00;;
11173;SDS011;5643;50.856;12.088;2022-08-02T13:03:27;1.20;;;1.10;;
11173;SDS011;5643;50.856;12.088;2022-08-02T13:05:54;1.17;;;1.15;;
11173;SDS011;5643;50.856;12.088;2022-08-02T13:08:22;0.82;;;0.80;;
11173;SDS011;5643;50.856;12.088;2022-08-02T13:10:51;0.73;;;0.73;;
11173;SDS011;5643;50.856;12.088;2022-08-02T13:13:32;1.05;;;1.00;;
11173;SDS011;5643;50.856;12.088;2022-08-02T13:15:59;1.20;;;0.95;;
11173;SDS011;5643;50.856;12.088;2022-08-02T13:18:27;1.13;;;1.13;;
11173;SDS011;5643;50.856;12.088;2022-08-02T13:20:55;1.35;;;1.08;;
11173;SDS011;5643;50.856;12.088;2022-08-02T13:23:22;1.08;;;1.00;;
11173;SDS011;5643;50.856;12.088;2022-08-02T13:25:51;0.90;;;0.90;;
11173;SDS011;5643;50.856;12.088;2022-08-02T13:28:19;1.75;;;0.90;;
11173;SDS011;5643;50.856;12.088;2022-08-02T13:30:48;0.90;;;0.90;;
11173;SDS011;5643;50.856;12.088;2022-08-02T13:33:16;0.88;;;0.88;;
11173;SDS011;5643;50.856;12.088;2022-08-02T13:35:44;0.82;;;0.80;;
11173;SDS011;5643;50.856;12.088;2022-08-02T13:38:13;1.10;;;0.98;;
11173;SDS011;5643;50.856;12.088;2022-08-02T13:40:41;0.80;;;0.80;;
11173;SDS011;5643;50.856;12.088;2022-08-02T13:43:24;0.70;;;0.70;;
11173;SDS011;5643;50.856;12.088;2022-08-02T13:45:52;1.38;;;0.98;;
11173;SDS011;5643;50.856;12.088;2022-08-02T13:48:20;1.55;;;0.75;;
11173;SDS011;5643;50.856;12.088;2022-08-02T13:50:48;0.90;;;0.90;;
11173;SDS011;5643;50.856;12.088;2022-08-02T13:53:15;0.80;;;0.80;;
11173;SDS011;5643;50.856;12.088;2022-08-02T13:55:43;0.82;;;0.80;;
11173;SDS011;5643;50.856;12.088;2022-08-02T13:58:13;1.40;;;1.02;;
11173;SDS011;5643;50.856;12.088;2022-08-02T14:00:45;0.90;;;0.90;;
11173;SDS011;5643;50.856;12.088;2022-08-02T14:03:13;1.98;;;1.00;;
11173;SDS011;5643;50.856;12.088;2022-08-02T14:05:44;0.90;;;0.90;;
11173;SDS011;5643;50.856;12.088;2022-08-02T14:08:11;1.00;;;1.00;;
11173;SDS011;5643;50.856;12.088;2022-08-02T14:10:39;0.77;;;0.77;;
11173;SDS011;5643;50.856;12.088;2022-08-02T14:13:07;1.08;;;1.05;;
11173;SDS011;5643;50.856;12.088;2022-08-02T14:15:34;1.60;;;1.20;;
11173;SDS011;5643;50.856;12.088;2022-08-02T14:18:03;0.90;;;0.90;;
11173;SDS011;5643;50.856;12.088;2022-08-02T14:20:31;0.80;;;0.80;;
11173;SDS011;5643;50.856;12.088;2022-08-02T14:22:59;0.82;;;0.82;;
11173;SDS011;5643;50.856;12.088;2022-08-02T14:25:26;1.10;;;1.00;;
11173;SDS011;5643;50.856;12.088;2022-08-02T14:27:54;1.05;;;0.98;;
11173;SDS011;5643;50.856;12.088;2022-08-02T14:30:21;0.90;;;0.90;;
11173;SDS011;5643;50.856;12.088;2022-08-02T14:32:49;1.20;;;1.20;;
11173;SDS011;5643;50.856;12.088;2022-08-02T14:35:18;1.02;;;1.02;;
11173;SDS011;5643;50.856;12.088;2022-08-02T14:37:46;0.70;;;0.70;;
11173;SDS011;5643;50.856;12.088;2022-08-02T14:40:14;0.80;;;0.80;;
11173;SDS011;5643;50.856;12.088;2022-08-02T14:42:42;0.80;;;0.80;;
11173;SDS011;5643;50.856;12.088;2022-08-02T14:45:09;0.90;;;0.90;;
11173;SDS011;5643;50.856;12.088;2022-08-02T14:47:37;1.15;;;1.10;;
11173;SDS011;5643;50.856;12.088;2022-08-02T14:50:05;0.88;;;0.88;;
11173;SDS011;5643;50.856;12.088;2022-08-02T14:52:35;0.88;;;0.85;;
11173;SDS011;5643;50.856;12.088;2022-08-02T14:55:02;0.90;;;0.90;;
11173;SDS011;5643;50.856;12.088;2022-08-02T14:57:30;0.95;;;0.70;;
11173;SDS011;5643;50.856;12.088;2022-08-02T14:59:59;1.10;;;0.90;;
11173;SDS011;5643;50.856;12.088;2022-08-02T15:02:26;1.13;;;1.02;;
11173;SDS011;5643;50.856;12.088;2022-08-02T15:04:55;0.90;;;0.90;;
11173;SDS011;5643;50.856;12.088;2022-08-02T15:07:23;0.77;;;0.77;;
11173;SDS011;5643;50.856;12.088;2022-08-02T15:09:52;1.00;;;1.00;;
11173;SDS011;5643;50.856;12.088;2022-08-02T15:12:20;0.90;;;0.90;;
11173;SDS011;5643;50.856;12.088;2022-08-02T15:14:48;0.88;;;0.88;;
11173;SDS011;5643;50.856;12.088;2022-08-02T15:17:15;1.17;;;1.08;;